Time;durP1;ratioP1;P1;durP2;ratioP2;P2;SDS_P1;SDS_P2;PMS_P1;PMS_P2;Temp;Humidity;BMP_temperature;BMP_pressure;BME280_temperature;BME280_humidity;BME280_pressure;Samples;Min_cycle;Max_cycle;Signal;HPM_P1;HPM_P2
2023/11/01 00:01:50;;;;;;;4.60;2.10;;;;;;;3.33;100.00;99983.06;4953405;28;20034;-79
2023/11/01 00:04:15;;;;;;;3.10;2.00;;;;;;;3.44;100.00;99997.13;4969526;28;20357;-79
2023/11/01 00:06:44;;;;;;;1.80;1.35;;;;;;;3.40;100.00;99999.22;4969109;28;20563;-79
2023/11/01 00:09:09;;;;;;;7.05;2.30;;;;;;;3.30;100.00;99987.78;4953098;28;20031;-79
2023/11/01 00:11:35;;;;;;;3.92;2.20;;;;;;;3.21;100.00;99985.94;4953212;28;20352;-79
2023/11/01 00:14:00;;;;;;;4.97;2.25;;;;;;;3.14;100.00;99973.28;4953242;28;20395;-79
2023/11/01 00:16:26;;;;;;;5.47;2.10;;;;;;;3.01;100.00;99967.41;4968997;28;20029;-78
2023/11/01 00:18:52;;;;;;;6.50;2.40;;;;;;;2.93;100.00;99959.34;4977346;28;20039;-79
2023/11/01 00:21:17;;;;;;;4.13;2.00;;;;;;;2.91;100.00;99972.66;4970327;28;20293;-78
2023/11/01 00:23:42;;;;;;;7.83;2.23;;;;;;;2.81;100.00;99966.50;4969184;28;20023;-80
2023/11/01 00:26:08;;;;;;;2.33;2.03;;;;;;;2.80;100.00;99970.09;4969099;28;20043;-79
2023/11/01 00:28:34;;;;;;;4.45;2.30;;;;;;;2.77;100.00;99975.63;4961363;28;20031;-79
2023/11/01 00:31:00;;;;;;;3.38;1.85;;;;;;;2.66;100.00;99973.91;4967919;28;20034;-79
2023/11/01 00:33:25;;;;;;;4.75;2.25;;;;;;;2.66;100.00;99978.34;4969086;28;20030;-79
2023/11/01 00:35:51;;;;;;;4.22;1.90;;;;;;;2.61;100.00;99978.72;4982944;28;20149;-79
2023/11/01 00:38:20;;;;;;;7.03;2.93;;;;;;;2.58;100.00;99975.53;4969045;28;20076;-79
2023/11/01 00:40:46;;;;;;;4.38;2.10;;;;;;;2.55;100.00;99984.50;4969135;28;20278;-79
2023/11/01 00:43:11;;;;;;;5.57;2.20;;;;;;;2.46;100.00;99975.59;4969516;28;20559;-79
2023/11/01 00:45:37;;;;;;;6.10;2.10;;;;;;;2.44;100.00;99974.06;4953128;28;20075;-79
2023/11/01 00:48:02;;;;;;;2.85;2.20;;;;;;;2.41;100.00;99984.84;4951848;28;20041;-79
2023/11/01 00:50:27;;;;;;;5.32;2.17;;;;;;;2.36;100.00;99981.75;4968864;28;20027;-79
2023/11/01 00:52:53;;;;;;;3.03;1.97;;;;;;;2.36;100.00;99981.75;4968744;28;20034;-79
2023/11/01 00:55:18;;;;;;;3.90;2.10;;;;;;;2.31;100.00;99982.16;4968931;28;20560;-79
2023/11/01 00:57:46;;;;;;;8.05;3.00;;;;;;;2.30;100.00;99981.31;4968358;28;20027;-79
2023/11/01 01:00:12;;;;;;;7.57;2.83;;;;;;;2.36;100.00;99993.13;4994120;28;20038;-79
2023/11/01 01:02:37;;;;;;;3.42;2.05;;;;;;;2.44;100.00;100005.69;4968498;28;20483;-77
2023/11/01 01:05:03;;;;;;;5.35;2.40;;;;;;;2.47;100.00;100011.50;4967965;28;20043;-78
2023/11/01 01:07:28;;;;;;;6.57;2.35;;;;;;;2.57;100.00;100027.38;4963363;28;20035;-78
2023/11/01 01:10:12;;;;;;;4.17;1.90;;;;;;;2.64;100.00;100019.81;4952171;28;20035;-79
2023/11/01 01:12:37;;;;;;;3.90;2.17;;;;;;;2.72;100.00;100030.56;4952518;28;20623;-79
2023/11/01 01:15:03;;;;;;;5.30;2.30;;;;;;;2.80;100.00;100027.25;4968406;28;20042;-79
2023/11/01 01:17:31;;;;;;;4.53;2.38;;;;;;;2.86;100.00;100034.66;4968225;28;20105;-79
2023/11/01 01:20:00;;;;;;;2.67;2.00;;;;;;;2.92;100.00;100034.94;4950738;28;20031;-78
2023/11/01 01:22:25;;;;;;;8.23;2.97;;;;;;;2.98;100.00;100043.31;4952312;28;20037;-79
2023/11/01 01:24:50;;;;;;;2.72;2.17;;;;;;;3.00;100.00;100038.72;4968264;28;20034;-78
2023/11/01 01:27:16;;;;;;;4.10;2.13;;;;;;;3.08;100.00;100041.56;4968076;28;20421;-77
2023/11/01 01:29:41;;;;;;;3.47;2.42;;;;;;;3.15;100.00;100048.81;4951978;28;20031;-79
2023/11/01 01:32:07;;;;;;;10.60;4.50;;;;;;;3.25;100.00;100059.41;4952182;28;20070;-79
2023/11/01 01:34:35;;;;;;;5.50;3.40;;;;;;;3.19;100.00;100046.75;4968366;28;20286;-80
2023/11/01 01:37:01;;;;;;;5.22;2.03;;;;;;;3.15;100.00;100032.16;4983220;28;20383;-78
2023/11/01 01:39:27;;;;;;;4.82;2.75;;;;;;;3.26;100.00;100053.16;4968184;28;20023;-79
2023/11/01 01:41:52;;;;;;;6.30;3.78;;;;;;;3.19;100.00;100036.19;4952147;28;20027;-78
2023/11/01 01:44:17;;;;;;;4.68;2.35;;;;;;;3.34;100.00;100049.88;4968296;28;20030;-79
2023/11/01 01:46:43;;;;;;;6.40;3.03;;;;;;;3.40;100.00;100051.16;4967748;28;20560;-79
2023/11/01 01:49:09;;;;;;;4.60;2.88;;;;;;;3.50;100.00;100067.84;4976073;28;20286;-79
2023/11/01 01:51:34;;;;;;;4.57;2.60;;;;;;;3.53;100.00;100064.94;4968117;28;20406;-79
2023/11/01 01:54:01;;;;;;;3.83;2.08;;;;;;;3.59;100.00;100078.44;4983444;28;20142;-79
2023/11/01 01:56:27;;;;;;;9.63;3.45;;;;;;;3.52;100.00;100063.28;4967711;28;20086;-78
2023/11/01 01:58:52;;;;;;;7.68;2.50;;;;;;;3.57;100.00;100066.34;4967689;28;20114;-80
2023/11/01 02:01:26;;;;;;;4.22;2.30;;;;;;;3.60;100.00;100068.69;4961656;28;20117;-81
2023/11/01 02:03:52;;;;;;;6.05;3.00;;;;;;;3.58;100.00;100060.06;4961173;28;20045;-80
2023/11/01 02:06:17;;;;;;;6.03;2.17;;;;;;;3.46;100.00;100061.16;4952001;28;20391;-80
2023/11/01 02:08:42;;;;;;;5.68;2.38;;;;;;;3.33;100.00;100037.66;4963409;28;20050;-80
2023/11/01 02:11:08;;;;;;;6.72;2.58;;;;;;;3.26;100.00;100042.63;4952277;28;20026;-81
2023/11/01 02:13:33;;;;;;;4.03;2.53;;;;;;;3.40;100.00;100061.72;4968296;28;20047;-81
2023/11/01 02:15:58;;;;;;;6.87;2.53;;;;;;;3.51;100.00;100067.72;4963474;28;20034;-81
2023/11/01 02:18:24;;;;;;;5.32;2.45;;;;;;;3.54;100.00;100063.97;4951926;28;20291;-79
2023/11/01 02:20:51;;;;;;;7.53;2.60;;;;;;;3.64;100.00;100064.00;4968123;28;20030;-79
2023/11/01 02:23:17;;;;;;;8.02;3.22;;;;;;;3.54;100.00;100053.41;4952463;28;20324;-78
2023/11/01 02:25:43;;;;;;;6.10;2.72;;;;;;;3.60;100.00;100050.22;4952119;28;20031;-80
2023/11/01 02:28:10;;;;;;;6.88;2.60;;;;;;;3.68;100.00;100055.69;4967608;28;20406;-78
2023/11/01 02:30:39;;;;;;;4.22;2.83;;;;;;;3.77;100.00;100072.53;4984384;28;20442;-80
2023/11/01 02:33:05;;;;;;;6.57;3.65;;;;;;;3.78;100.00;100069.72;4968354;28;20030;-80
2023/11/01 02:35:30;;;;;;;4.32;2.70;;;;;;;3.66;100.00;100049.69;4949186;28;20042;-80
2023/11/01 02:37:56;;;;;;;6.37;2.60;;;;;;;3.71;100.00;100057.22;4967800;28;20035;-79
2023/11/01 02:40:21;;;;;;;6.85;3.35;;;;;;;3.81;100.00;100058.88;4968014;28;20084;-78
2023/11/01 02:42:48;;;;;;;7.57;2.97;;;;;;;3.89;100.00;100063.50;4952285;28;20380;-81
2023/11/01 02:45:15;;;;;;;4.28;2.58;;;;;;;3.91;100.00;100055.44;4968365;28;20030;-79
2023/11/01 02:47:42;;;;;;;6.10;2.72;;;;;;;3.86;100.00;100050.56;4967694;28;20039;-81
2023/11/01 02:50:10;;;;;;;12.38;3.83;;;;;;;3.84;100.00;100034.03;4967802;28;20487;-78
2023/11/01 02:52:37;;;;;;;8.18;3.17;;;;;;;3.75;100.00;100035.69;4968573;28;20122;-80
2023/11/01 02:55:07;;;;;;;5.35;2.75;;;;;;;3.68;100.00;100029.28;4968677;28;20444;-79
2023/11/01 02:57:32;;;;;;;6.22;3.30;;;;;;;3.83;100.00;100034.16;4968213;28;20026;-79
2023/11/01 03:00:06;;;;;;;4.55;2.60;;;;;;;3.87;100.00;100025.00;4951847;28;20034;-79
2023/11/01 03:02:40;;;;;;;4.05;2.97;;;;;;;3.96;100.00;100037.41;4968606;28;20043;-81
2023/11/01 03:05:06;;;;;;;4.28;2.33;;;;;;;3.96;100.00;100042.69;4984661;28;20039;-79
2023/11/01 03:07:31;;;;;;;8.30;4.20;;;;;;;3.81;100.00;100040.41;4970744;28;20399;-81
2023/11/01 03:09:57;;;;;;;9.00;4.00;;;;;;;3.77;100.00;100036.38;4955331;28;20046;-79
2023/11/01 03:12:22;;;;;;;10.38;3.05;;;;;;;3.62;100.00;100016.63;4970341;28;20850;-80
2023/11/01 03:14:48;;;;;;;7.10;3.20;;;;;;;3.61;100.00;100032.59;4952478;28;20130;-80
2023/11/01 03:17:13;;;;;;;7.20;3.33;;;;;;;3.55;100.00;100028.69;4971792;28;20301;-80
2023/11/01 03:19:40;;;;;;;6.05;2.95;;;;;;;3.63;100.00;100036.78;4971995;28;20054;-80
2023/11/01 03:22:05;;;;;;;5.43;3.08;;;;;;;3.71;100.00;100044.84;4971407;28;20487;-79
2023/11/01 03:24:31;;;;;;;8.18;3.17;;;;;;;3.58;100.00;100036.31;4972444;28;20023;-80
2023/11/01 03:26:58;;;;;;;5.20;3.25;;;;;;;3.56;100.00;100036.47;4971942;28;20042;-78
2023/11/01 03:29:24;;;;;;;7.40;3.92;;;;;;;3.44;100.00;100013.81;4964345;28;20023;-80
2023/11/01 03:31:49;;;;;;;10.15;3.22;;;;;;;3.57;100.00;100029.38;4972614;28;20038;-80
2023/11/01 03:34:15;;;;;;;;;;;;;;;3.66;100.00;100031.22;4973453;28;20031;-80
2023/11/01 03:36:40;;;;;;;6.88;3.17;;;;;;;3.51;100.00;100014.06;4997695;28;20012;-79
2023/11/01 03:39:08;;;;;;;4.85;2.80;;;;;;;3.56;100.00;100019.81;4956824;28;20517;-78
2023/11/01 03:41:38;;;;;;;6.50;2.67;;;;;;;3.80;100.00;100019.44;4973458;28;20030;-80
2023/11/01 03:44:03;;;;;;;4.25;2.33;;;;;;;3.96;100.00;100032.13;4973273;28;20069;-80
2023/11/01 03:46:29;;;;;;;4.10;2.50;;;;;;;3.89;100.00;100021.25;4952310;28;20022;-78
2023/11/01 03:48:54;;;;;;;4.67;2.53;;;;;;;3.61;100.00;100001.75;4957987;28;20041;-80
2023/11/01 03:51:19;;;;;;;6.10;2.97;;;;;;;3.85;100.00;100016.38;4981383;28;20015;-80
2023/11/01 03:53:45;;;;;;;8.10;2.70;;;;;;;3.97;100.00;100016.09;4973345;28;20654;-79
2023/11/01 03:56:11;;;;;;;6.17;2.60;;;;;;;4.09;100.00;100021.25;4973242;28;20034;-80
2023/11/01 03:58:36;;;;;;;8.07;3.10;;;;;;;4.10;100.00;100012.38;4973962;28;20274;-80
2023/11/01 04:01:01;;;;;;;3.80;2.07;;;;;;;3.98;100.00;99995.81;4957178;28;20039;-78
2023/11/01 04:03:27;;;;;;;4.82;1.95;;;;;;;3.88;100.00;99987.06;4984665;28;20030;-80
2023/11/01 04:05:53;;;;;;;4.90;1.80;;;;;;;3.80;100.00;99969.25;4990656;28;20034;-81
2023/11/01 04:08:18;;;;;;;5.30;1.65;;;;;;;3.99;100.00;99966.63;4974973;28;20048;-80
2023/11/01 04:10:45;;;;;;;5.40;2.03;;;;;;;3.84;100.00;99953.97;4980526;28;20022;-80
2023/11/01 04:13:11;;;;;;;4.70;2.40;;;;;;;3.79;100.00;99947.31;4975688;28;20176;-80
2023/11/01 04:15:36;;;;;;;5.72;1.92;;;;;;;3.75;100.00;99942.44;4959396;28;20026;-80
2023/11/01 04:18:01;;;;;;;9.57;2.43;;;;;;;3.99;100.00;99963.97;4953828;28;20096;-77
2023/11/01 04:20:27;;;;;;;2.83;2.10;;;;;;;4.00;100.00;99959.53;4969286;28;20042;-79
2023/11/01 04:22:52;;;;;;;4.68;2.38;;;;;;;4.00;100.00;99949.81;4968935;28;20279;-79
2023/11/01 04:25:18;;;;;;;4.60;2.15;;;;;;;3.81;100.00;99940.06;4953246;28;20068;-79
2023/11/01 04:27:44;;;;;;;5.63;1.88;;;;;;;3.74;100.00;99932.84;4969032;28;20035;-77
2023/11/01 04:30:12;;;;;;;11.98;2.28;;;;;;;3.56;100.00;99922.16;4969099;28;20118;-77
2023/11/01 04:32:38;;;;;;;8.20;1.85;;;;;;;3.45;100.00;99917.81;4970809;28;20026;-78
2023/11/01 04:35:03;;;;;;;;;;;;;;;3.46;100.00;99926.56;4984459;28;20491;-77
2023/11/01 04:37:30;;;;;;;5.03;2.20;;;;;;;3.46;100.00;99934.47;4952685;28;19976;-78
2023/11/01 04:39:56;;;;;;;3.85;2.17;;;;;;;3.40;100.00;99921.84;4984975;28;20030;-77
2023/11/01 04:42:22;;;;;;;5.72;1.80;;;;;;;3.55;100.00;99923.94;4969068;28;20031;-76
2023/11/01 04:44:48;;;;;;;4.63;2.17;;;;;;;3.57;100.00;99913.25;4969003;28;20599;-77
2023/11/01 04:47:16;;;;;;;5.35;2.47;;;;;;;3.67;100.00;99915.88;4951984;28;20084;-78
2023/11/01 04:49:41;;;;;;;5.05;3.03;;;;;;;3.51;100.00;99904.09;4968264;28;20577;-79
2023/11/01 04:52:07;;;;;;;8.50;3.95;;;;;;;3.63;100.00;99911.84;4970082;28;20122;-78
2023/11/01 04:54:33;;;;;;;5.38;2.17;;;;;;;3.55;100.00;99902.00;4968971;28;20101;-79
2023/11/01 04:57:02;;;;;;;4.88;2.20;;;;;;;3.68;100.00;99915.75;4984561;28;20096;-78
2023/11/01 04:59:31;;;;;;;8.98;3.35;;;;;;;3.54;100.00;99906.44;4968742;28;20144;-79
2023/11/01 05:01:57;;;;;;;5.15;2.35;;;;;;;3.48;100.00;99904.34;4968469;28;20105;-78
2023/11/01 05:04:23;;;;;;;;;;;;;;;3.65;100.00;99921.28;4975247;28;20365;-78
2023/11/01 05:06:51;;;;;;;5.28;2.08;;;;;;;3.48;100.00;99911.44;4964746;28;19936;-78
2023/11/01 05:09:17;;;;;;;3.08;1.90;;;;;;;3.76;100.00;99938.81;4968615;28;20506;-78
2023/11/01 05:11:43;;;;;;;;;;;;;;;3.74;100.00;99931.03;4985395;28;20128;-78
2023/11/01 05:14:09;;;;;;;5.47;2.30;;;;;;;3.76;100.00;99915.88;4969916;28;19918;-78
2023/11/01 05:16:34;;;;;;;2.53;1.73;;;;;;;3.80;100.00;99917.28;4968381;28;20041;-77
2023/11/01 05:18:59;;;;;;;6.13;2.13;;;;;;;3.84;100.00;99909.94;4984448;28;20043;-78
2023/11/01 05:21:25;;;;;;;3.93;2.67;;;;;;;3.90;100.00;99909.34;4978014;28;20333;-78
2023/11/01 05:23:50;;;;;;;5.95;2.20;;;;;;;4.05;100.00;99914.22;4968677;28;20034;-76
2023/11/01 05:26:16;;;;;;;3.70;2.30;;;;;;;3.92;100.00;99888.09;4968348;28;20375;-78
2023/11/01 05:28:42;;;;;;;7.95;2.55;;;;;;;3.79;100.00;99873.38;4968067;28;20301;-79
2023/11/01 05:31:11;;;;;;;5.72;2.88;;;;;;;3.76;100.00;99884.22;4952133;28;20119;-78
2023/11/01 05:33:36;;;;;;;5.90;2.70;;;;;;;3.83;100.00;99888.94;4979138;28;20396;-76
2023/11/01 05:36:06;;;;;;;5.33;2.67;;;;;;;3.93;100.00;99879.19;4970196;28;20101;-79
2023/11/01 05:38:35;;;;;;;5.82;2.75;;;;;;;4.08;100.00;99871.69;4971385;28;20278;-79
2023/11/01 05:41:00;;;;;;;11.68;3.42;;;;;;;4.18;100.00;99888.34;4971480;28;20102;-79
2023/11/01 05:43:26;;;;;;;14.77;3.53;;;;;;;4.07;100.00;99864.72;4968096;28;20066;-80
2023/11/01 05:45:51;;;;;;;7.55;3.17;;;;;;;3.92;100.00;99872.25;4971050;28;20081;-78
2023/11/01 05:48:17;;;;;;;8.13;3.60;;;;;;;4.01;100.00;99874.06;4993732;28;20023;-78
2023/11/01 05:50:45;;;;;;;5.45;2.83;;;;;;;3.87;100.00;99871.84;4961547;28;20039;-80
2023/11/01 05:53:11;;;;;;;6.75;2.90;;;;;;;4.05;100.00;99882.50;4971901;28;20042;-78
2023/11/01 05:55:37;;;;;;;4.25;2.80;;;;;;;4.27;100.00;99887.47;4972302;28;20034;-79
2023/11/01 05:58:11;;;;;;;5.00;3.65;;;;;;;4.00;100.00;99864.44;4971407;28;20053;-77
2023/11/01 06:00:38;;;;;;;8.80;2.65;;;;;;;4.08;100.00;99875.16;4954628;28;20042;-79
2023/11/01 06:03:07;;;;;;;6.60;3.30;;;;;;;4.25;100.00;99878.03;4954737;28;20022;-78
2023/11/01 06:05:35;;;;;;;7.32;2.85;;;;;;;4.23;100.00;99881.63;4970401;28;20039;-77
2023/11/01 06:08:01;;;;;;;5.80;3.42;;;;;;;4.07;100.00;99873.47;4970340;28;20027;-80
2023/11/01 06:10:26;;;;;;;4.20;2.92;;;;;;;4.11;100.00;99881.97;4969881;28;20026;-78
2023/11/01 06:12:52;;;;;;;7.33;3.73;;;;;;;4.41;100.00;99904.69;4970732;28;20022;-78
2023/11/01 06:15:17;;;;;;;4.50;2.53;;;;;;;4.20;100.00;99881.94;4969657;28;20318;-76
2023/11/01 06:17:43;;;;;;;6.00;2.73;;;;;;;4.46;100.00;99899.81;4970621;28;20285;-79
2023/11/01 06:20:08;;;;;;;10.32;3.20;;;;;;;4.52;100.00;99888.66;4969906;28;20092;-78
2023/11/01 06:22:33;;;;;;;10.57;4.25;;;;;;;4.32;100.00;99869.38;4970411;28;20027;-78
2023/11/01 06:25:00;;;;;;;8.07;2.97;;;;;;;4.44;100.00;99878.78;4969853;28;20408;-79
2023/11/01 06:27:26;;;;;;;7.35;3.05;;;;;;;4.54;100.00;99883.22;4969315;28;20278;-78
2023/11/01 06:29:52;;;;;;;6.85;2.95;;;;;;;4.60;100.00;99883.47;4970136;28;20035;-78
2023/11/01 06:32:18;;;;;;;6.90;2.85;;;;;;;4.54;100.00;99878.78;4978309;28;20022;-78
2023/11/01 06:34:43;;;;;;;5.63;3.05;;;;;;;4.59;100.00;99881.81;4970116;28;20069;-78
2023/11/01 06:37:12;;;;;;;3.97;2.53;;;;;;;4.43;100.00;99852.53;4969778;28;20049;-80
2023/11/01 06:39:38;;;;;;;9.73;2.50;;;;;;;4.55;100.00;99867.22;4986150;28;20030;-78
2023/11/01 06:42:03;;;;;;;7.83;2.87;;;;;;;4.61;100.00;99869.28;4973193;28;20037;-79
2023/11/01 06:44:30;;;;;;;8.63;3.40;;;;;;;4.53;100.00;99855.13;4989750;28;20285;-77
2023/11/01 06:46:55;;;;;;;8.43;3.13;;;;;;;4.60;100.00;99869.44;4974683;23;20018;-84
2023/11/01 06:49:21;;;;;;;3.15;2.00;;;;;;;4.65;100.00;99860.06;4925892;28;20024;-84
2023/11/01 06:51:46;;;;;;;4.70;2.53;;;;;;;4.73;100.00;99845.28;4920538;29;20806;-84
2023/11/01 06:54:12;;;;;;;5.03;1.88;;;;;;;4.82;100.00;99841.75;4920286;28;20491;-83
2023/11/01 06:56:43;;;;;;;5.87;2.90;;;;;;;4.86;100.00;99845.78;4930207;29;20491;-84
2023/11/01 06:59:09;;;;;;;7.72;2.50;;;;;;;4.88;100.00;99840.34;4913671;29;20291;-84
2023/11/01 07:01:35;;;;;;;2.90;2.00;;;;;;;4.79;100.00;99828.84;4914396;28;20036;-84
2023/11/01 07:04:01;;;;;;;5.18;2.08;;;;;;;4.85;100.00;99829.09;4913727;29;20840;-84
2023/11/01 07:06:26;;;;;;;3.88;1.98;;;;;;;4.79;100.00;99812.97;4915191;29;20114;-84
2023/11/01 07:08:51;;;;;;;3.37;2.00;;;;;;;4.71;100.00;99810.25;4922218;28;20131;-85
2023/11/01 07:11:18;;;;;;;6.27;1.60;;;;;;;4.90;100.00;99822.53;4914510;28;20036;-83
2023/11/01 07:13:44;;;;;;;5.95;2.67;;;;;;;4.84;100.00;99816.81;4915274;28;20485;-85
2023/11/01 07:16:09;;;;;;;17.13;4.93;;;;;;;4.91;100.00;99813.59;4900072;28;20028;-83
2023/11/01 07:18:39;;;;;;;7.25;2.10;;;;;;;4.82;100.00;99807.38;4915092;29;20123;-83
2023/11/01 07:21:05;;;;;;;4.85;2.25;;;;;;;4.94;100.00;99813.28;4914864;29;20036;-84
2023/11/01 07:23:31;;;;;;;4.15;1.88;;;;;;;4.81;100.00;99788.03;4913895;29;20028;-84
2023/11/01 07:25:56;;;;;;;4.55;1.70;;;;;;;5.05;100.00;99798.03;4913571;28;20155;-84
2023/11/01 07:28:22;;;;;;;5.80;1.63;;;;;;;5.11;100.00;99777.28;4913440;28;20370;-84
2023/11/01 07:30:47;;;;;;;11.17;2.27;;;;;;;5.20;100.00;99765.78;4897808;29;20032;-85
2023/11/01 07:33:12;;;;;;;3.80;1.47;;;;;;;5.21;100.00;99762.97;4912541;28;20044;-84
2023/11/01 07:35:38;;;;;;;7.00;1.52;;;;;;;5.14;100.00;99764.56;4912612;28;20096;-85
2023/11/01 07:38:03;;;;;;;2.72;1.35;;;;;;;5.27;100.00;99774.78;4932810;28;20055;-85
2023/11/01 07:40:29;;;;;;;3.93;1.50;;;;;;;5.29;100.00;99751.63;4919294;28;20031;-85
2023/11/01 07:42:54;;;;;;;4.77;1.43;;;;;;;5.30;100.00;99748.00;4902721;28;20040;-86
2023/11/01 07:45:19;;;;;;;11.40;3.17;;;;;;;5.29;100.00;99736.59;4918158;28;20129;-85
2023/11/01 07:47:45;;;;;;;4.50;1.77;;;;;;;5.41;100.00;99753.06;4914320;28;20051;-84
2023/11/01 07:50:13;;;;;;;3.80;1.30;;;;;;;5.52;100.00;99748.50;4913601;28;20064;-86
2023/11/01 07:52:39;;;;;;;4.85;1.27;;;;;;;5.58;100.00;99734.66;4936154;28;20319;-85
2023/11/01 07:55:05;;;;;;;4.07;1.58;;;;;;;5.34;100.00;99717.59;4915656;28;20052;-84
2023/11/01 07:57:31;;;;;;;5.88;1.58;;;;;;;5.37;100.00;99727.88;4914654;28;20040;-84
2023/11/01 07:59:57;;;;;;;16.98;2.70;;;;;;;5.49;100.00;99741.69;4908911;28;20025;-85
2023/11/01 08:02:23;;;;;;;9.15;2.55;;;;;;;5.48;100.00;99748.81;4915685;28;20396;-85
2023/11/01 08:04:48;;;;;;;3.85;1.60;;;;;;;5.40;100.00;99753.19;4914127;28;20120;-84
2023/11/01 08:07:14;;;;;;;8.32;1.48;;;;;;;5.50;100.00;99764.53;4913983;28;20040;-85
2023/11/01 08:09:39;;;;;;;6.40;2.20;;;;;;;5.42;100.00;99748.59;4900257;28;20037;-85
2023/11/01 08:12:06;;;;;;;6.30;2.30;;;;;;;5.47;100.00;99776.25;4914393;28;20059;-85
2023/11/01 08:14:31;;;;;;;6.93;1.95;;;;;;;5.44;100.00;99783.69;4915877;29;20082;-85
2023/11/01 08:16:57;;;;;;;5.68;3.00;;;;;;;5.53;100.00;99811.06;4898491;29;20131;-85
2023/11/01 08:19:23;;;;;;;5.07;1.93;;;;;;;5.70;100.00;99820.78;4914505;28;20016;-85
2023/11/01 08:21:48;;;;;;;5.90;2.40;;;;;;;5.71;100.00;99825.09;4914702;28;20294;-84
2023/11/01 08:24:13;;;;;;;6.68;2.55;;;;;;;5.70;100.00;99828.75;4898649;29;20111;-85
2023/11/01 08:26:39;;;;;;;6.23;2.00;;;;;;;5.83;100.00;99841.56;4914632;28;20082;-85
2023/11/01 08:29:04;;;;;;;12.60;4.40;;;;;;;5.67;100.00;99824.59;4914368;29;20032;-85
2023/11/01 08:31:30;;;;;;;11.63;3.30;;;;;;;5.54;100.00;99829.44;4914946;29;20334;-85
2023/11/01 08:33:55;;;;;;;13.40;3.93;;;;;;;5.63;100.00;99854.19;4899484;28;20680;-85
2023/11/01 08:36:20;;;;;;;10.43;3.07;;;;;;;5.95;100.00;99880.13;4898602;29;20411;-84
2023/11/01 08:38:46;;;;;;;9.83;4.10;;;;;;;5.78;100.00;99857.94;4916081;29;20326;-85
2023/11/01 08:41:13;;;;;;;12.20;3.93;;;;;;;5.71;100.00;99865.69;4914989;28;20032;-86
2023/11/01 08:43:41;;;;;;;11.27;3.40;;;;;;;5.69;100.00;99874.75;4898872;29;20024;-84
2023/11/01 08:46:07;;;;;;;10.45;3.70;;;;;;;5.85;100.00;99889.94;4914044;28;20046;-84
2023/11/01 08:48:32;;;;;;;11.00;4.60;;;;;;;5.75;100.00;99868.84;4914204;28;20119;-85
2023/11/01 08:50:58;;;;;;;12.75;4.07;;;;;;;5.61;100.00;99848.19;4914440;28;20035;-86
2023/11/01 08:53:23;;;;;;;11.23;3.63;;;;;;;5.83;100.00;99883.97;4914975;28;20036;-87
2023/11/01 08:55:48;;;;;;;14.67;4.50;;;;;;;5.81;100.00;99883.31;4915110;28;20024;-86
2023/11/01 08:58:14;;;;;;;12.70;4.10;;;;;;;5.67;100.00;99877.56;4921435;28;20502;-85
2023/11/01 09:00:39;;;;;;;13.00;4.10;;;;;;;5.63;100.00;99886.78;4981081;28;20463;-85
2023/11/01 09:03:06;;;;;;;16.20;4.50;;;;;;;5.67;100.00;99903.22;4921470;29;20419;-84
2023/11/01 09:05:31;;;;;;;10.63;4.75;;;;;;;5.64;100.00;99888.47;4915815;29;20066;-85
2023/11/01 09:07:57;;;;;;;10.63;5.00;;;;;;;5.57;100.00;99891.84;4915224;29;20035;-85
2023/11/01 09:10:22;;;;;;;17.47;4.87;;;;;;;5.64;100.00;99900.84;4931028;29;20110;-84
2023/11/01 09:12:47;;;;;;;21.70;5.77;;;;;;;5.72;100.00;99895.63;4923709;28;20028;-85
2023/11/01 09:15:13;;;;;;;10.87;5.30;;;;;;;5.78;100.00;99887.06;4899646;28;20052;-84
2023/11/01 09:17:39;;;;;;;13.07;5.33;;;;;;;5.90;100.00;99882.38;4915857;28;20024;-84
2023/11/01 09:20:06;;;;;;;9.43;3.67;;;;;;;5.81;100.00;99878.00;4982062;28;20036;-86
2023/11/01 09:22:31;;;;;;;13.50;5.28;;;;;;;6.10;100.00;99909.56;4899699;28;20032;-86
2023/11/01 09:24:57;;;;;;;12.02;4.82;;;;;;;6.27;100.00;99906.03;4915726;28;20047;-87
2023/11/01 09:27:22;;;;;;;8.13;4.07;;;;;;;6.18;100.00;99893.72;4915553;28;20111;-87
2023/11/01 09:29:47;;;;;;;14.18;3.55;;;;;;;6.49;100.00;99906.53;4916237;28;20609;-87
2023/11/01 09:32:13;;;;;;;10.10;4.43;;;;;;;6.53;100.00;99897.25;4916502;29;20472;-87
2023/11/01 09:34:39;;;;;;;22.33;7.87;;;;;;;6.33;100.00;99860.34;4918443;28;20538;-87
2023/11/01 09:37:04;;;;;;;18.52;6.28;;;;;;;6.32;100.00;99860.50;4917047;28;20044;-85
2023/11/01 09:39:30;;;;;;;13.17;4.07;;;;;;;6.33;100.00;99868.31;4917801;28;20062;-86
2023/11/01 09:42:02;;;;;;;13.85;5.68;;;;;;;6.38;100.00;99859.06;4921297;28;20367;-85
2023/11/01 09:44:32;;;;;;;17.08;6.50;;;;;;;6.32;100.00;99858.69;4928276;28;20071;-86
2023/11/01 09:46:58;;;;;;;15.63;5.18;;;;;;;6.10;100.00;99840.66;4899803;28;20039;-85
2023/11/01 09:49:23;;;;;;;12.00;5.03;;;;;;;6.31;100.00;99857.00;4916762;28;20481;-84
2023/11/01 09:51:49;;;;;;;18.05;6.70;;;;;;;6.43;100.00;99870.00;4896284;28;20119;-86
2023/11/01 09:54:15;;;;;;;14.32;5.55;;;;;;;6.68;100.00;99881.59;4913024;29;20512;-86
2023/11/01 09:56:46;;;;;;;18.08;5.70;;;;;;;6.53;100.00;99862.75;4895883;28;20039;-85
2023/11/01 09:59:12;;;;;;;12.95;5.35;;;;;;;6.57;100.00;99860.66;4897115;28;20127;-84
2023/11/01 10:01:39;;;;;;;16.50;5.03;;;;;;;6.58;100.00;99855.19;4895999;28;20054;-84
2023/11/01 10:04:05;;;;;;;9.80;5.03;;;;;;;6.49;100.00;99856.97;4912527;28;20044;-85
2023/11/01 10:06:34;;;;;;;12.38;5.60;;;;;;;6.51;100.00;99857.63;4913267;28;20028;-85
2023/11/01 10:08:59;;;;;;;11.25;5.22;;;;;;;6.64;100.00;99857.19;4911324;29;20040;-85
2023/11/01 10:11:25;;;;;;;15.88;4.97;;;;;;;6.76;100.00;99853.25;4920074;29;20043;-84
2023/11/01 10:13:51;;;;;;;14.55;5.68;;;;;;;6.67;100.00;99840.13;4895805;29;20111;-84
2023/11/01 10:16:16;;;;;;;32.53;6.15;;;;;;;6.94;100.00;99849.69;4914853;28;20297;-85
2023/11/01 10:18:42;;;;;;;15.80;5.33;;;;;;;7.11;100.00;99848.72;4933853;28;20046;-85
2023/11/01 10:21:09;;;;;;;12.63;5.63;;;;;;;7.24;100.00;99839.50;4936602;29;20174;-85
2023/11/01 10:23:35;;;;;;;11.93;4.75;;;;;;;7.12;100.00;99829.19;4923984;28;20492;-84
2023/11/01 10:26:01;;;;;;;12.98;5.25;;;;;;;7.23;100.00;99821.88;4915158;29;20122;-85
2023/11/01 10:28:27;;;;;;;;;;;;;;;7.22;100.00;99814.94;4899006;29;20055;-85
2023/11/01 10:30:53;;;;;;;18.95;6.00;;;;;;;6.89;100.00;99783.00;4929845;28;19915;-84
2023/11/01 10:33:19;;;;;;;;;;;;;;;7.19;100.00;99819.56;4899177;28;20111;-84
2023/11/01 10:36:03;;;;;;;15.68;5.57;;;;;;;7.16;100.00;99803.97;4931769;29;20017;-86
2023/11/01 10:38:31;;;;;;;13.52;6.72;;;;;;;7.08;100.00;99798.63;4921774;28;20418;-86
2023/11/01 10:41:02;;;;;;;13.50;4.82;;;;;;;7.15;100.00;99802.28;4916950;28;20111;-85
2023/11/01 10:43:28;;;;;;;11.48;5.38;;;;;;;7.27;100.00;99820.56;4910186;28;20032;-86
2023/11/01 10:45:58;;;;;;;15.45;5.50;;;;;;;7.10;100.00;99806.44;4922316;28;20107;-86
2023/11/01 10:48:25;;;;;;;17.98;5.30;;;;;;;7.49;100.00;99819.94;4933141;28;20123;-85
2023/11/01 10:50:51;;;;;;;17.38;5.70;;;;;;;7.28;100.00;99787.72;4917067;28;20036;-85
2023/11/01 10:53:17;;;;;;;13.43;5.07;;;;;;;7.56;100.00;99805.00;4916007;28;20029;-86
2023/11/01 10:55:43;;;;;;;14.85;5.30;;;;;;;7.80;100.00;99803.34;4920159;28;20462;-86
2023/11/01 10:58:13;;;;;;;15.70;5.90;;;;;;;7.59;100.00;99754.19;4929809;28;20047;-85
2023/11/01 11:00:46;;;;;;;13.27;5.35;;;;;;;7.76;100.00;99773.59;4913774;28;20463;-85
2023/11/01 11:03:24;;;;;;;13.20;4.70;;;;;;;7.97;100.00;99778.38;4913798;28;20028;-84
2023/11/01 11:05:51;;;;;;;13.35;5.15;;;;;;;7.85;100.00;99766.44;4913407;28;20032;-84
2023/11/01 11:08:16;;;;;;;9.65;5.65;;;;;;;7.86;100.00;99760.13;4913336;28;20032;-83
2023/11/01 11:10:43;;;;;;;12.88;5.25;;;;;;;7.75;100.00;99747.19;4986147;28;20101;-84
2023/11/01 11:13:09;;;;;;;13.25;5.80;;;;;;;7.83;100.00;99766.59;4915850;29;20055;-84
2023/11/01 11:15:50;;;;;;;11.43;5.32;;;;;;;7.86;100.00;99767.28;4917858;28;20029;-86
2023/11/01 11:18:42;;;;;;;11.38;5.00;;;;;;;7.72;100.00;99744.88;4897539;29;20040;-84
2023/11/01 11:21:07;;;;;;;11.75;5.35;;;;;;;7.90;100.00;99750.81;4905645;28;20052;-85
2023/11/01 11:23:36;;;;;;;12.50;4.93;;;;;;;7.84;100.00;99751.47;4913898;28;20636;-84
2023/11/01 11:26:03;;;;;;;15.43;5.65;;;;;;;7.85;100.00;99745.19;4924485;28;20284;-88